createdAt,value
2023-04-26T00:01:04.074Z,17.02
2023-04-26T00:03:33.068Z,16.27
2023-04-26T00:06:08.745Z,14.73
2023-04-26T00:08:36.659Z,15.50
2023-04-26T00:11:04.565Z,15.32
2023-04-26T00:13:32.255Z,14.77
2023-04-26T00:15:59.884Z,17.00
2023-04-26T00:18:28.355Z,14.45
2023-04-26T00:20:56.070Z,16.75
2023-04-26T00:23:23.607Z,14.65
2023-04-26T00:25:51.138Z,15.88
2023-04-26T00:28:18.796Z,17.73
2023-04-26T00:30:48.862Z,15.93
2023-04-26T00:33:18.745Z,18.15
2023-04-26T00:35:46.293Z,16.35
2023-04-26T00:38:14.110Z,17.20
2023-04-26T00:40:41.962Z,16.17
2023-04-26T00:43:09.614Z,14.93
2023-04-26T00:45:37.287Z,15.05
2023-04-26T00:48:05.637Z,15.43
2023-04-26T00:50:33.685Z,16.15
2023-04-26T00:53:02.905Z,15.88
2023-04-26T00:55:30.802Z,14.77
2023-04-26T00:57:58.352Z,14.80
2023-04-26T01:00:26.155Z,14.95
2023-04-26T01:02:53.952Z,15.13
2023-04-26T01:05:21.789Z,17.77
2023-04-26T01:07:49.611Z,15.57
2023-04-26T01:10:19.185Z,13.20
2023-04-26T01:12:47.899Z,18.50
2023-04-26T01:15:18.623Z,15.38
2023-04-26T01:17:47.468Z,15.27
2023-04-26T01:20:15.243Z,16.75
2023-04-26T01:22:43.257Z,15.90
2023-04-26T01:25:12.583Z,15.60
2023-04-26T01:27:40.351Z,15.30
2023-04-26T01:30:09.759Z,16.83
2023-04-26T01:32:39.163Z,16.35
2023-04-26T01:35:07.554Z,15.10
2023-04-26T01:37:35.383Z,19.85
2023-04-26T01:40:06.389Z,16.38
2023-04-26T01:42:34.002Z,14.80
2023-04-26T01:45:01.633Z,14.75
2023-04-26T01:47:49.257Z,19.42
2023-04-26T01:50:17.021Z,15.25
2023-04-26T01:52:45.910Z,18.88
2023-04-26T01:55:14.918Z,19.08
2023-04-26T01:57:42.692Z,20.98
2023-04-26T02:00:11.502Z,21.10
2023-04-26T02:02:41.953Z,22.98
2023-04-26T02:05:11.848Z,22.25
2023-04-26T02:07:39.463Z,21.63
2023-04-26T02:10:07.823Z,18.42
2023-04-26T02:12:35.476Z,18.08
2023-04-26T02:15:04.868Z,18.10
2023-04-26T02:17:32.924Z,14.02
2023-04-26T02:20:00.715Z,16.13
2023-04-26T02:22:29.601Z,15.32
2023-04-26T02:24:57.138Z,14.52
2023-04-26T02:27:28.344Z,15.27
2023-04-26T02:29:58.913Z,15.38
2023-04-26T02:32:26.909Z,15.05
2023-04-26T02:34:54.551Z,20.95
2023-04-26T02:37:22.277Z,27.45
2023-04-26T02:39:51.594Z,22.40
2023-04-26T02:42:19.492Z,18.08
2023-04-26T02:44:48.055Z,29.90
2023-04-26T02:47:16.516Z,24.42
2023-04-26T02:49:44.210Z,24.73
2023-04-26T02:52:12.002Z,18.63
2023-04-26T02:54:39.576Z,22.35
2023-04-26T02:57:08.328Z,35.85
2023-04-26T02:59:36.069Z,23.67
2023-04-26T03:02:04.023Z,25.75
2023-04-26T03:04:36.128Z,29.83
2023-04-26T03:07:04.490Z,21.17
2023-04-26T03:09:32.217Z,28.52
2023-04-26T03:12:00.001Z,21.30
2023-04-26T03:14:27.837Z,28.35
2023-04-26T03:16:57.694Z,29.75
2023-04-26T03:19:28.265Z,25.35
2023-04-26T03:21:57.087Z,31.35
2023-04-26T03:24:24.807Z,26.42
2023-04-26T03:26:52.708Z,31.33
2023-04-26T03:29:20.635Z,45.28
2023-04-26T03:31:48.342Z,21.55
2023-04-26T03:34:15.977Z,19.98
2023-04-26T03:36:43.597Z,22.95
2023-04-26T03:39:13.796Z,24.42
2023-04-26T03:41:41.613Z,23.27
2023-04-26T03:44:12.486Z,27.27
2023-04-26T03:46:41.284Z,17.88
2023-04-26T03:49:08.878Z,19.48
2023-04-26T03:51:36.607Z,18.35
2023-04-26T03:54:05.001Z,19.20
2023-04-26T03:56:32.504Z,23.92
2023-04-26T03:59:01.368Z,16.35
2023-04-26T04:01:29.277Z,15.40
2023-04-26T04:03:57.386Z,19.63
2023-04-26T04:06:25.352Z,16.45
2023-04-26T04:08:53.720Z,16.90
2023-04-26T04:11:21.997Z,17.25
2023-04-26T04:13:49.511Z,19.67
2023-04-26T04:16:17.191Z,43.17
2023-04-26T04:18:44.853Z,30.50
2023-04-26T04:21:12.533Z,20.45
2023-04-26T04:23:40.177Z,18.02
2023-04-26T04:26:12.444Z,23.90
2023-04-26T04:28:41.653Z,24.08
2023-04-26T04:31:09.960Z,18.20
2023-04-26T04:33:37.977Z,19.35
2023-04-26T04:36:07.359Z,23.70
2023-04-26T04:38:35.920Z,26.85
2023-04-26T04:41:05.827Z,21.75
2023-04-26T04:43:34.726Z,21.17
2023-04-26T04:46:02.279Z,27.50
2023-04-26T04:48:30.021Z,24.80
2023-04-26T04:50:58.423Z,21.77
2023-04-26T04:53:26.263Z,29.63
2023-04-26T04:55:54.166Z,24.15
2023-04-26T04:58:22.557Z,24.08
2023-04-26T05:00:52.572Z,19.00
2023-04-26T05:03:25.033Z,19.10
2023-04-26T05:05:53.083Z,23.50
2023-04-26T05:08:20.644Z,20.27
2023-04-26T05:10:51.711Z,22.48
2023-04-26T05:13:19.706Z,27.80
2023-04-26T05:15:47.255Z,22.60
2023-04-26T05:18:14.874Z,20.38
2023-04-26T05:20:42.462Z,22.50
2023-04-26T05:23:10.842Z,19.67
2023-04-26T05:25:38.467Z,19.55
2023-04-26T05:28:26.064Z,29.75
2023-04-26T05:31:14.260Z,22.98
2023-04-26T05:34:08.016Z,19.83
2023-04-26T05:36:38.096Z,19.95
2023-04-26T05:39:08.670Z,20.13
2023-04-26T05:41:36.384Z,15.07
2023-04-26T05:44:04.136Z,21.63
2023-04-26T05:46:32.737Z,23.33
2023-04-26T05:49:00.359Z,22.98
2023-04-26T05:51:28.907Z,23.50
2023-04-26T05:53:57.346Z,20.33
2023-04-26T05:56:26.749Z,22.10
2023-04-26T05:58:54.451Z,23.20
2023-04-26T06:01:22.819Z,18.67
2023-04-26T06:03:52.455Z,25.75
2023-04-26T06:06:23.626Z,20.10
2023-04-26T06:08:51.580Z,21.58
2023-04-26T06:11:21.513Z,21.77
2023-04-26T06:13:49.656Z,19.85
2023-04-26T06:16:18.749Z,15.63
2023-04-26T06:18:48.223Z,18.58
2023-04-26T06:21:15.837Z,18.52
2023-04-26T06:23:43.486Z,18.98
2023-04-26T06:26:11.137Z,17.45
2023-04-26T06:28:41.041Z,20.80
2023-04-26T06:31:12.251Z,22.67
2023-04-26T06:33:40.209Z,23.05
2023-04-26T06:36:11.861Z,18.83
2023-04-26T06:38:39.512Z,17.27
2023-04-26T06:41:08.417Z,17.17
2023-04-26T06:43:36.247Z,21.30
2023-04-26T06:46:08.119Z,21.00
2023-04-26T06:48:35.872Z,20.92
2023-04-26T06:51:09.268Z,19.80
2023-04-26T06:53:36.955Z,19.35
2023-04-26T06:56:04.975Z,17.75
2023-04-26T06:58:32.479Z,23.80
2023-04-26T07:01:00.314Z,23.25
2023-04-26T07:03:28.111Z,16.92
2023-04-26T07:05:56.816Z,20.20
2023-04-26T07:08:24.494Z,21.17
2023-04-26T07:10:52.133Z,20.60
2023-04-26T07:13:19.689Z,19.80
2023-04-26T07:15:47.457Z,20.83
2023-04-26T07:18:15.093Z,17.42
2023-04-26T07:20:42.745Z,22.73
2023-04-26T07:23:12.761Z,22.50
2023-04-26T07:25:40.881Z,19.58
2023-04-26T07:28:08.694Z,24.35
2023-04-26T07:30:36.490Z,16.80
2023-04-26T07:33:04.817Z,20.15
2023-04-26T07:35:35.262Z,33.22
2023-04-26T07:38:03.295Z,19.15
2023-04-26T07:40:32.021Z,20.67
2023-04-26T07:43:03.552Z,20.70
2023-04-26T07:45:32.653Z,19.27
2023-04-26T07:48:01.299Z,18.33
2023-04-26T07:50:30.678Z,17.98
2023-04-26T07:52:58.365Z,20.77
2023-04-26T07:55:26.497Z,15.93
2023-04-26T07:57:54.024Z,14.80
2023-04-26T08:00:24.386Z,16.42
2023-04-26T08:02:52.360Z,20.05
2023-04-26T08:05:20.522Z,16.77
2023-04-26T08:07:48.368Z,17.55
2023-04-26T08:10:16.148Z,16.42
2023-04-26T08:12:43.751Z,15.20
2023-04-26T08:15:12.047Z,17.50
2023-04-26T08:17:39.637Z,16.75
2023-04-26T08:20:09.561Z,15.70
2023-04-26T08:22:39.211Z,19.27
2023-04-26T08:25:07.060Z,18.80
2023-04-26T08:27:34.707Z,21.23
2023-04-26T08:30:04.074Z,18.40
2023-04-26T08:32:36.641Z,16.77
2023-04-26T08:35:04.864Z,13.18
2023-04-26T08:37:32.689Z,15.50
2023-04-26T08:40:00.305Z,22.60
2023-04-26T08:42:28.979Z,22.52
2023-04-26T08:45:00.811Z,15.80
2023-04-26T08:47:46.147Z,18.08
2023-04-26T08:50:15.524Z,16.83
2023-04-26T08:52:44.438Z,14.82
2023-04-26T08:55:16.414Z,17.45
2023-04-26T08:57:47.165Z,14.00
2023-04-26T09:00:16.282Z,16.20
2023-04-26T09:02:50.222Z,15.00
2023-04-26T09:05:24.501Z,17.02
2023-04-26T09:07:57.136Z,15.30
2023-04-26T09:10:25.336Z,14.30
2023-04-26T09:12:53.678Z,15.07
2023-04-26T09:15:23.352Z,18.80
2023-04-26T09:17:52.414Z,12.85
2023-04-26T09:20:25.709Z,13.88
2023-04-26T09:23:03.758Z,15.45
2023-04-26T09:25:32.111Z,21.25
2023-04-26T09:28:01.003Z,13.38
2023-04-26T09:30:29.571Z,10.60
2023-04-26T09:33:05.982Z,9.18
2023-04-26T09:35:42.139Z,10.38
2023-04-26T09:38:15.080Z,13.25
2023-04-26T09:40:47.731Z,13.93
2023-04-26T09:43:16.928Z,12.80
2023-04-26T09:45:57.121Z,9.68
2023-04-26T09:48:26.931Z,48.17
2023-04-26T09:50:57.619Z,13.27
2023-04-26T09:53:37.273Z,29.42
2023-04-26T09:56:13.740Z,15.23
2023-04-26T09:58:44.060Z,17.38
2023-04-26T10:01:12.170Z,19.33
2023-04-26T10:03:42.767Z,13.30
2023-04-26T10:06:12.372Z,18.05
2023-04-26T10:08:39.952Z,17.50
2023-04-26T10:11:09.799Z,15.32
2023-04-26T10:13:37.746Z,18.73
2023-04-26T10:16:06.842Z,15.52
2023-04-26T10:18:35.770Z,17.40
2023-04-26T10:21:37.874Z,13.20
2023-04-26T10:24:06.110Z,15.60
2023-04-26T10:26:54.657Z,15.65
2023-04-26T10:29:26.304Z,12.93
2023-04-26T10:32:03.984Z,14.93
2023-04-26T10:34:33.771Z,13.23
2023-04-26T10:37:11.765Z,18.98
2023-04-26T10:39:40.920Z,17.70
2023-04-26T10:42:25.661Z,11.13
2023-04-26T10:44:58.806Z,18.60
2023-04-26T10:47:32.553Z,13.93
2023-04-26T10:50:11.362Z,21.98
2023-04-26T10:53:03.841Z,14.38
2023-04-26T10:55:42.258Z,14.93
2023-04-26T10:58:46.332Z,13.55
2023-04-26T11:01:18.815Z,11.57
2023-04-26T11:03:59.149Z,10.68
2023-04-26T11:06:28.885Z,13.65
2023-04-26T11:08:56.528Z,7.65
2023-04-26T11:11:27.323Z,14.48
2023-04-26T11:13:56.385Z,12.77
2023-04-26T11:16:29.117Z,20.55
2023-04-26T11:18:57.027Z,20.45
2023-04-26T11:21:26.936Z,13.02
2023-04-26T11:23:55.498Z,11.32
2023-04-26T11:26:24.689Z,16.45
2023-04-26T11:28:52.579Z,14.80
2023-04-26T11:31:20.794Z,14.75
2023-04-26T11:33:50.633Z,11.35
2023-04-26T11:36:19.834Z,12.88
2023-04-26T11:38:47.804Z,16.00
2023-04-26T11:41:15.408Z,14.45
2023-04-26T11:43:43.136Z,16.02
2023-04-26T11:46:10.944Z,13.95
2023-04-26T11:48:40.011Z,13.07
2023-04-26T11:51:08.634Z,12.95
2023-04-26T11:53:37.819Z,11.85
2023-04-26T11:56:19.052Z,10.82
2023-04-26T11:58:51.272Z,13.43
2023-04-26T12:01:25.365Z,15.23
2023-04-26T12:03:58.033Z,9.50
2023-04-26T12:06:46.742Z,13.05
2023-04-26T12:09:14.293Z,11.52
2023-04-26T12:11:47.843Z,11.60
2023-04-26T12:14:16.528Z,11.75
2023-04-26T12:16:44.313Z,7.78
2023-04-26T12:19:13.407Z,10.02
2023-04-26T12:21:43.259Z,9.98
2023-04-26T12:24:25.446Z,6.80
2023-04-26T12:26:53.338Z,13.02
2023-04-26T12:29:20.950Z,9.00
2023-04-26T12:31:48.718Z,8.95
2023-04-26T12:34:16.447Z,11.30
2023-04-26T12:36:44.586Z,9.63
2023-04-26T12:39:14.482Z,13.77
2023-04-26T12:41:42.930Z,9.00
2023-04-26T12:44:11.539Z,7.30
2023-04-26T12:46:39.341Z,9.50
2023-04-26T12:49:07.583Z,9.13
2023-04-26T12:51:35.339Z,11.38
2023-04-26T12:54:03.573Z,13.07
2023-04-26T12:56:31.170Z,11.70
2023-04-26T12:58:58.734Z,9.63
2023-04-26T13:01:26.911Z,7.32
2023-04-26T13:03:56.622Z,10.65
2023-04-26T13:06:24.421Z,10.07
2023-04-26T13:08:52.310Z,9.63
2023-04-26T13:11:19.928Z,8.52
2023-04-26T13:13:47.811Z,9.35
2023-04-26T13:16:15.352Z,9.18
2023-04-26T13:18:42.897Z,11.27
2023-04-26T13:21:10.623Z,12.80
2023-04-26T13:23:38.198Z,10.65
2023-04-26T13:26:07.764Z,12.65
2023-04-26T13:28:36.923Z,9.02
2023-04-26T13:31:04.678Z,15.18
2023-04-26T13:33:32.645Z,11.55
2023-04-26T13:36:00.286Z,9.32
2023-04-26T13:38:27.991Z,10.75
2023-04-26T13:40:55.533Z,8.88
2023-04-26T13:43:23.466Z,12.77
2023-04-26T13:45:51.345Z,8.43
2023-04-26T13:48:18.963Z,9.10
2023-04-26T13:50:46.650Z,7.13
2023-04-26T13:53:14.499Z,8.52
2023-04-26T13:55:42.122Z,7.82
2023-04-26T13:58:10.370Z,10.60
2023-04-26T14:00:37.926Z,12.93
2023-04-26T14:03:05.903Z,8.60
2023-04-26T14:05:33.541Z,7.85
2023-04-26T14:08:01.257Z,9.18
2023-04-26T14:10:28.918Z,11.63
2023-04-26T14:12:56.641Z,11.02
2023-04-26T14:15:24.129Z,9.82
2023-04-26T14:17:52.175Z,8.45
2023-04-26T14:20:19.799Z,9.48
2023-04-26T14:22:48.648Z,7.60
2023-04-26T14:25:16.808Z,11.52
2023-04-26T14:27:44.425Z,13.00
2023-04-26T14:30:14.533Z,13.70
2023-04-26T14:32:44.503Z,18.40
2023-04-26T14:35:12.205Z,8.48
2023-04-26T14:37:39.846Z,16.25
2023-04-26T14:40:11.689Z,18.90
2023-04-26T14:42:45.805Z,11.63
2023-04-26T14:45:13.583Z,10.70
2023-04-26T14:47:41.457Z,18.88
2023-04-26T14:50:10.459Z,9.30
2023-04-26T14:52:38.761Z,13.60
2023-04-26T14:55:07.608Z,9.95
2023-04-26T14:57:35.167Z,11.10
2023-04-26T15:00:15.312Z,13.00
2023-04-26T15:02:44.000Z,7.72
2023-04-26T15:05:12.816Z,10.30
2023-04-26T15:07:40.559Z,9.88
2023-04-26T15:10:08.924Z,7.95
2023-04-26T15:12:36.952Z,9.80
2023-04-26T15:15:04.947Z,9.27
2023-04-26T15:17:34.336Z,9.35
2023-04-26T15:20:02.243Z,9.52
2023-04-26T15:22:32.954Z,10.18
2023-04-26T15:25:00.632Z,13.50
2023-04-26T15:27:28.454Z,13.68
2023-04-26T15:29:58.678Z,12.73
2023-04-26T15:32:26.817Z,15.02
2023-04-26T15:34:54.323Z,8.50
2023-04-26T15:37:21.932Z,9.70
2023-04-26T15:39:49.764Z,14.93
2023-04-26T15:42:17.501Z,13.93
2023-04-26T15:44:45.109Z,8.02
2023-04-26T15:47:12.662Z,13.18
2023-04-26T15:49:40.322Z,7.50
2023-04-26T15:52:07.899Z,8.07
2023-04-26T15:54:35.481Z,8.18
2023-04-26T15:57:04.068Z,7.60
2023-04-26T15:59:32.368Z,6.80
2023-04-26T16:02:00.130Z,6.93
2023-04-26T16:04:28.023Z,7.47
2023-04-26T16:06:55.836Z,7.97
2023-04-26T16:09:25.670Z,11.85
2023-04-26T16:11:53.467Z,9.15
2023-04-26T16:14:20.971Z,8.20
2023-04-26T16:16:48.581Z,6.93
2023-04-26T16:19:18.822Z,8.88
2023-04-26T16:21:47.079Z,11.40
2023-04-26T16:24:14.859Z,10.50
2023-04-26T16:26:42.923Z,8.27
2023-04-26T16:29:10.488Z,8.52
2023-04-26T16:31:42.203Z,10.45
2023-04-26T16:34:09.787Z,10.48
2023-04-26T16:36:37.288Z,12.98
2023-04-26T16:39:04.857Z,8.48
2023-04-26T16:41:32.805Z,10.02
2023-04-26T16:44:00.647Z,9.90
2023-04-26T16:46:28.137Z,10.18
2023-04-26T16:48:55.764Z,9.02
2023-04-26T16:51:23.534Z,10.55
2023-04-26T16:53:51.277Z,10.25
2023-04-26T16:56:18.898Z,10.63
2023-04-26T16:58:46.603Z,18.40
2023-04-26T17:01:14.433Z,28.35
2023-04-26T17:03:42.799Z,27.83
2023-04-26T17:06:10.805Z,15.60
2023-04-26T17:08:38.492Z,13.43
2023-04-26T17:11:06.440Z,12.65
2023-04-26T17:13:34.235Z,12.13
2023-04-26T17:16:02.766Z,18.65
2023-04-26T17:18:30.864Z,35.75
2023-04-26T17:20:58.479Z,10.27
2023-04-26T17:23:26.776Z,11.88
2023-04-26T17:25:57.138Z,13.40
2023-04-26T17:28:24.716Z,14.23
2023-04-26T17:30:52.536Z,12.70
2023-04-26T17:33:20.595Z,12.45
2023-04-26T17:35:48.326Z,15.77
2023-04-26T17:38:15.985Z,33.65
2023-04-26T17:40:43.816Z,21.20
2023-04-26T17:43:12.404Z,27.23
2023-04-26T17:45:40.029Z,21.20
2023-04-26T17:48:12.857Z,19.05
2023-04-26T17:50:40.688Z,40.05
2023-04-26T17:53:08.699Z,24.67
2023-04-26T17:55:37.952Z,26.00
2023-04-26T17:58:05.690Z,29.77
2023-04-26T18:00:33.850Z,24.05
2023-04-26T18:03:04.364Z,26.92
2023-04-26T18:05:32.123Z,21.35
2023-04-26T18:08:00.473Z,16.45
2023-04-26T18:10:28.855Z,20.77
2023-04-26T18:13:01.785Z,24.27
2023-04-26T18:15:31.319Z,33.80
2023-04-26T18:18:00.937Z,20.20
2023-04-26T18:20:28.798Z,23.27
2023-04-26T18:22:56.711Z,13.90
2023-04-26T18:25:28.878Z,15.07
2023-04-26T18:27:56.922Z,16.35
2023-04-26T18:30:24.500Z,12.98
2023-04-26T18:32:54.335Z,17.60
2023-04-26T18:35:21.945Z,27.55
2023-04-26T18:37:50.395Z,14.70
2023-04-26T18:40:18.080Z,13.05
2023-04-26T18:42:45.586Z,25.88
2023-04-26T18:45:13.748Z,29.42
2023-04-26T18:47:44.281Z,15.02
2023-04-26T18:50:13.749Z,17.17
2023-04-26T18:52:41.838Z,18.23
2023-04-26T18:55:09.954Z,10.35
2023-04-26T18:57:39.320Z,12.05
2023-04-26T19:00:08.763Z,12.63
2023-04-26T19:02:40.034Z,11.07
2023-04-26T19:05:15.831Z,11.15
2023-04-26T19:07:45.592Z,9.88
2023-04-26T19:10:15.395Z,11.32
2023-04-26T19:12:43.374Z,13.48
2023-04-26T19:15:11.706Z,11.85
2023-04-26T19:17:39.787Z,10.90
2023-04-26T19:20:12.398Z,10.70
2023-04-26T19:22:45.264Z,11.85
2023-04-26T19:25:14.035Z,10.82
2023-04-26T19:27:41.591Z,11.88
2023-04-26T19:30:09.772Z,12.82
2023-04-26T19:32:37.767Z,13.38
2023-04-26T19:35:06.232Z,17.10
2023-04-26T19:37:34.040Z,14.77
2023-04-26T19:40:02.730Z,14.35
2023-04-26T19:42:30.979Z,13.65
2023-04-26T19:44:58.606Z,22.33
2023-04-26T19:47:26.768Z,15.32
2023-04-26T19:49:59.430Z,18.02
2023-04-26T19:52:27.650Z,12.40
2023-04-26T19:54:55.617Z,18.65
2023-04-26T19:57:23.555Z,11.30
2023-04-26T19:59:51.376Z,13.70
2023-04-26T20:02:19.060Z,24.83
2023-04-26T20:04:47.090Z,23.70
2023-04-26T20:07:15.025Z,19.48
2023-04-26T20:09:42.948Z,16.80
2023-04-26T20:12:11.179Z,14.57
2023-04-26T20:14:38.938Z,11.80
2023-04-26T20:17:07.074Z,13.10
2023-04-26T20:19:35.691Z,11.05
2023-04-26T20:22:04.014Z,11.73
2023-04-26T20:24:33.206Z,8.18
2023-04-26T20:27:01.964Z,8.60
2023-04-26T20:29:29.859Z,8.75
2023-04-26T20:31:57.835Z,9.45
2023-04-26T20:34:25.684Z,10.98
2023-04-26T20:36:53.470Z,8.13
2023-04-26T20:39:21.931Z,9.27
2023-04-26T20:41:49.893Z,9.18
2023-04-26T20:44:17.902Z,12.77
2023-04-26T20:46:45.618Z,11.40
2023-04-26T20:49:13.624Z,12.43
2023-04-26T20:51:41.207Z,11.98
2023-04-26T20:54:08.919Z,11.15
2023-04-26T20:56:36.729Z,9.63
2023-04-26T20:59:04.723Z,9.98
2023-04-26T21:01:33.864Z,9.52
2023-04-26T21:04:01.743Z,20.92
2023-04-26T21:06:29.314Z,27.33
2023-04-26T21:08:56.932Z,25.00
2023-04-26T21:11:24.488Z,15.20
2023-04-26T21:13:54.175Z,20.92
2023-04-26T21:16:23.142Z,17.77
2023-04-26T21:18:50.958Z,16.00
2023-04-26T21:21:19.065Z,13.60
2023-04-26T21:23:47.426Z,13.85
2023-04-26T21:26:14.965Z,12.40
2023-04-26T21:28:43.232Z,10.75
2023-04-26T21:31:11.681Z,10.63
2023-04-26T21:33:39.292Z,15.70
2023-04-26T21:36:07.168Z,12.70
2023-04-26T21:38:34.888Z,18.90
2023-04-26T21:41:02.670Z,11.15
2023-04-26T21:43:30.611Z,10.95
2023-04-26T21:45:58.591Z,11.63
2023-04-26T21:48:26.589Z,12.18
2023-04-26T21:50:54.486Z,13.60
2023-04-26T21:53:22.096Z,11.20
2023-04-26T21:55:53.879Z,15.55
2023-04-26T21:58:21.965Z,16.38
2023-04-26T22:00:50.699Z,13.88
2023-04-26T22:03:19.758Z,12.13
2023-04-26T22:05:47.418Z,11.68
2023-04-26T22:08:15.156Z,12.60
2023-04-26T22:10:42.738Z,15.10
2023-04-26T22:13:10.498Z,15.30
2023-04-26T22:15:38.020Z,14.73
2023-04-26T22:18:05.646Z,20.75
2023-04-26T22:20:33.355Z,20.60
2023-04-26T22:23:01.290Z,24.63
2023-04-26T22:25:29.809Z,41.65
2023-04-26T22:27:57.544Z,30.75
2023-04-26T22:30:26.152Z,28.67
2023-04-26T22:32:57.273Z,19.95
2023-04-26T22:35:28.948Z,16.75
2023-04-26T22:37:56.606Z,16.83
2023-04-26T22:40:24.321Z,18.23
2023-04-26T22:42:52.065Z,26.58
2023-04-26T22:45:19.874Z,34.42
2023-04-26T22:47:47.465Z,34.55
2023-04-26T22:50:15.145Z,36.05
2023-04-26T22:52:42.759Z,59.25
2023-04-26T22:55:10.395Z,47.10
2023-04-26T22:57:37.959Z,29.52
2023-04-26T23:00:09.540Z,18.30
2023-04-26T23:02:37.343Z,19.58
2023-04-26T23:05:08.022Z,18.52
2023-04-26T23:07:36.403Z,15.77
2023-04-26T23:10:04.994Z,15.68
2023-04-26T23:12:33.402Z,14.43
2023-04-26T23:15:01.879Z,13.20
2023-04-26T23:17:32.113Z,10.10
2023-04-26T23:20:00.296Z,14.27
2023-04-26T23:22:28.269Z,13.52
2023-04-26T23:24:56.476Z,12.30
2023-04-26T23:27:24.854Z,10.60
2023-04-26T23:29:52.606Z,12.40
2023-04-26T23:32:20.186Z,13.68
2023-04-26T23:34:47.745Z,21.95
2023-04-26T23:37:15.252Z,27.00
2023-04-26T23:39:43.378Z,17.40
2023-04-26T23:42:11.600Z,29.10
2023-04-26T23:44:39.300Z,13.82
2023-04-26T23:47:06.918Z,14.85
2023-04-26T23:49:34.566Z,15.60
2023-04-26T23:52:02.355Z,16.17
2023-04-26T23:54:29.926Z,22.92
2023-04-26T23:56:57.607Z,18.73
2023-04-26T23:59:25.178Z,16.80
